X  Sluiten METAR luchtvaart weer gegevens      EHAM Amsterdam Airport Schiphol
Temperatuur
18°C Temperatuur
15°C Dauwpunt
83% Vochtigheid



Wind
16 KM/U
10 MPH
4 M/S
9 KTS



50°
NO
Huidig weer

Helder Helder
Luchtdruk 1026.92 (hPa) - 30.32 (inHg)
Zicht 6.2 (mijl) - 10 (km)
Vliegveld
Vliegveld code EHAM

Locatie : Amsterdam Airport Schiphol
Afstand: 25 (km)

Metar:
EHAM 100555Z 05009KT 020V080 CAVOK 18/15 Q1027 NOSIG

Tijd: 10-08-2022 07:55 CEST